Time;durP1;ratioP1;P1;durP2;ratioP2;P2;SDS_P1;SDS_P2;PMS_P1;PMS_P2;Temp;Humidity;BMP_temperature;BMP_pressure;BME280_temperature;BME280_humidity;BME280_pressure;Samples;Min_cycle;Max_cycle;Signal;HPM_P1;HPM_P2
2022/06/19 00:01:01;;;;;;;;;;;;;;;22.02;47.07;96076.63;5095292;28;19947;-73
2022/06/19 00:03:29;;;;;;;;;;;;;;;21.97;47.78;96072.19;5095587;28;19974;-72
2022/06/19 00:05:55;;;;;;;;;;;;;;;21.93;47.65;96065.88;5095284;28;19963;-72
2022/06/19 00:08:21;;;;;;;;;;;;;;;21.89;47.49;96068.34;5094953;28;19964;-72
2022/06/19 00:10:48;;;;;;;;;;;;;;;21.85;47.91;96067.34;5095072;28;19963;-72
2022/06/19 00:13:15;;;;;;;;;;;;;;;21.81;48.14;96058.38;5094885;28;19974;-72
2022/06/19 00:15:41;;;;;;;;;;;;;;;21.78;48.08;96050.19;5095082;28;19969;-72
2022/06/19 00:18:07;;;;;;;;;;;;;;;21.75;47.93;96046.22;5095343;28;20327;-72
2022/06/19 00:20:33;;;;;;;;;;;;;;;21.70;48.05;96051.66;5094833;28;19953;-72
2022/06/19 00:22:58;;;;;;;;;;;;;;;21.66;48.10;96048.03;5094918;28;19957;-71
2022/06/19 00:25:24;;;;;;;;;;;;;;;21.62;47.97;96039.03;5095014;28;20368;-72
2022/06/19 00:27:50;;;;;;;;;;;;;;;21.59;48.23;96040.41;5094828;28;19961;-71
2022/06/19 00:30:16;;;;;;;;;;;;;;;21.58;48.23;96035.38;5094662;28;20479;-71
2022/06/19 00:32:42;;;;;;;;;;;;;;;21.55;48.77;96038.66;5094996;28;19953;-71
2022/06/19 00:35:09;;;;;;;;;;;;;;;21.52;48.94;96041.91;5094544;28;19967;-72
2022/06/19 00:37:34;;;;;;;;;;;;;;;21.47;49.06;96032.91;5095251;28;19961;-71
2022/06/19 00:40:02;;;;;;;;;;;;;;;21.43;48.77;96023.91;5092758;28;19961;-72
2022/06/19 00:42:29;;;;;;;;;;;;;;;21.42;48.62;96029.56;5094546;28;19950;-71
2022/06/19 00:44:54;;;;;;;;;;;;;;;21.40;48.64;96031.72;5094431;28;19959;-72
2022/06/19 00:47:26;;;;;;;;;;;;;;;21.38;48.63;96023.22;5094617;28;19957;-72
2022/06/19 00:50:11;;;;;;;;;;;;;;;21.34;49.15;96028.34;5094202;28;19968;-71
2022/06/19 00:52:38;;;;;;;;;;;;;;;21.31;48.79;96022.81;5094303;28;20411;-72
2022/06/19 00:55:08;;;;;;;;;;;;;;;21.27;49.01;96018.09;5081066;28;19968;-71
2022/06/19 00:57:42;;;;;;;;;;;;;;;21.23;49.23;96013.63;5092852;28;19951;-72
2022/06/19 01:00:16;;;;;;;;;;;;;;;21.18;49.47;96011.84;5094113;28;20328;-72
2022/06/19 01:02:43;;;;;;;;;;;;;;;21.15;49.60;96015.13;5094676;28;19952;-72
2022/06/19 01:05:14;;;;;;;;;;;;;;;21.11;49.50;96008.78;5094099;28;19956;-71
2022/06/19 01:07:41;;;;;;;;;;;;;;;21.07;49.32;96005.91;5092972;28;19950;-71
2022/06/19 01:10:08;;;;;;;;;;;;;;;21.06;49.80;96007.03;5093339;28;19974;-72
2022/06/19 01:12:34;;;;;;;;;;;;;;;21.02;50.09;96007.88;5093885;28;20322;-72
2022/06/19 01:15:02;;;;;;;;;;;;;;;20.98;50.01;96001.59;5094120;28;20079;-72
2022/06/19 01:17:29;;;;;;;;;;;;;;;20.94;50.53;95997.94;5093994;28;19964;-71
2022/06/19 01:19:55;;;;;;;;;;;;;;;20.92;49.87;95997.44;5093909;28;19960;-71
2022/06/19 01:22:44;;;;;;;;;;;;;;;20.90;49.84;95987.06;5093264;28;19995;-72
2022/06/19 01:25:12;;;;;;;;;;;;;;;20.87;50.02;95983.13;5088187;28;19960;-71
2022/06/19 01:30:28;;;;;;;;;;;;;;;20.80;50.68;95973.91;5093713;28;19991;-72
2022/06/19 01:32:56;;;;;;;;;;;;;;;20.78;50.69;95982.19;5093803;28;19951;-72
2022/06/19 01:35:22;;;;;;;;;;;;;;;20.76;50.70;95978.25;5093029;28;19961;-71
2022/06/19 01:37:50;;;;;;;;;;;;;;;20.73;50.54;95973.53;5093933;28;19960;-72
2022/06/19 01:40:29;;;;;;;;;;;;;;;20.70;50.71;95980.22;5082726;28;19951;-71
2022/06/19 01:43:05;;;;;;;;;;;;;;;20.65;50.56;95983.75;5093677;28;19968;-71
2022/06/19 01:45:32;;;;;;;;;;;;;;;20.62;50.78;95986.22;5092248;28;19965;-72
2022/06/19 01:47:58;;;;;;;;;;;;;;;20.59;51.19;95992.16;5093673;28;20432;-72
2022/06/19 01:50:27;;;;;;;;;;;;;;;20.55;51.86;95988.44;5092309;28;19990;-71
2022/06/19 01:52:56;;;;;;;;;;;;;;;20.50;51.45;95988.56;5093488;28;19949;-72
2022/06/19 01:55:28;;;;;;;;;;;;;;;20.48;51.45;95991.50;5093976;28;19950;-72
2022/06/19 01:57:56;;;;;;;;;;;;;;;20.45;51.58;95994.72;5093577;28;19956;-73
2022/06/19 02:00:24;;;;;;;;;;;;;;;20.41;51.52;95989.22;5093337;28;19960;-71
2022/06/19 02:02:54;;;;;;;;;;;;;;;20.37;51.62;95988.22;5093618;28;20332;-71
2022/06/19 02:05:21;;;;;;;;;;;;;;;20.35;52.16;95995.72;5093690;28;19963;-71
2022/06/19 02:07:48;;;;;;;;;;;;;;;20.32;52.28;95995.50;5093323;28;19953;-71
2022/06/19 02:10:14;;;;;;;;;;;;;;;20.29;52.38;95991.53;5092175;28;20342;-71
2022/06/19 02:12:40;;;;;;;;;;;;;;;20.25;52.40;95994.00;5093172;28;19955;-71
2022/06/19 02:15:27;;;;;;;;;;;;;;;20.23;52.37;95984.72;5092251;28;19980;-71
2022/06/19 02:17:54;;;;;;;;;;;;;;;20.20;52.15;95983.44;5093359;28;19975;-72
2022/06/19 02:20:20;;;;;;;;;;;;;;;20.16;52.35;95977.09;5078306;28;19967;-71
2022/06/19 02:22:46;;;;;;;;;;;;;;;20.14;52.25;95973.94;5093177;28;19962;-72
2022/06/19 02:25:12;;;;;;;;;;;;;;;20.13;52.61;95971.56;5093365;28;19959;-71
2022/06/19 02:27:38;;;;;;;;;;;;;;;20.10;52.64;95970.28;5093278;28;20435;-72
2022/06/19 02:30:06;;;;;;;;;;;;;;;20.10;52.68;95970.28;5093068;28;19977;-71
2022/06/19 02:32:50;;;;;;;;;;;;;;;20.10;52.34;95969.50;5083313;28;19952;-71
2022/06/19 02:35:20;;;;;;;;;;;;;;;20.10;51.88;95961.50;5093119;28;19952;-72
2022/06/19 02:37:50;;;;;;;;;;;;;;;20.10;52.70;95967.63;5093138;28;19953;-72
2022/06/19 02:40:19;;;;;;;;;;;;;;;20.08;52.35;95967.91;5093005;28;19960;-72
2022/06/19 02:42:46;;;;;;;;;;;;;;;20.08;52.66;95969.78;5093156;28;19964;-72
2022/06/19 02:45:20;;;;;;;;;;;;;;;20.06;52.47;95963.94;5093053;28;19956;-71
2022/06/19 02:47:46;;;;;;;;;;;;;;;20.04;52.63;95964.22;5096244;28;19959;-71
2022/06/19 02:50:15;;;;;;;;;;;;;;;20.01;52.75;95967.50;5096954;28;19972;-72
2022/06/19 02:52:40;;;;;;;;;;;;;;;19.98;53.12;95972.59;5097008;28;19952;-72
2022/06/19 02:55:07;;;;;;;;;;;;;;;19.94;53.49;95967.03;5096543;28;19959;-72
2022/06/19 02:57:33;;;;;;;;;;;;;;;19.90;53.15;95963.38;5095294;28;19959;-71
2022/06/19 02:59:59;;;;;;;;;;;;;;;19.86;53.87;95957.88;5096714;28;20462;-71
2022/06/19 03:02:26;;;;;;;;;;;;;;;19.83;53.58;95960.31;5096385;28;20000;-72
2022/06/19 03:05:00;;;;;;;;;;;;;;;19.81;53.97;95965.13;5096310;28;19968;-72
2022/06/19 03:07:29;;;;;;;;;;;;;;;19.79;54.08;95962.75;5096271;28;19948;-71
2022/06/19 03:09:55;;;;;;;;;;;;;;;19.77;54.01;95956.13;5096645;28;19983;-71
2022/06/19 03:12:21;;;;;;;;;;;;;;;19.71;54.49;95954.63;5095760;28;20325;-72
2022/06/19 03:14:48;;;;;;;;;;;;;;;19.67;54.04;95949.06;5094769;28;19977;-72
2022/06/19 03:17:15;;;;;;;;;;;;;;;19.63;54.43;95950.72;5096337;28;19958;-71
2022/06/19 03:19:41;;;;;;;;;;;;;;;19.61;54.57;95945.69;5096039;28;20426;-72
2022/06/19 03:22:07;;;;;;;;;;;;;;;19.59;54.92;95942.53;5096129;28;19961;-71
2022/06/19 03:24:33;;;;;;;;;;;;;;;19.56;54.93;95942.31;5096060;28;19956;-71
2022/06/19 03:26:59;;;;;;;;;;;;;;;19.55;54.81;95933.53;5096132;28;20020;-72
2022/06/19 03:29:24;;;;;;;;;;;;;;;19.52;55.18;95936.75;5095962;28;20039;-72
2022/06/19 03:31:50;;;;;;;;;;;;;;;19.51;55.37;95935.19;5096090;28;19999;-71
2022/06/19 03:34:16;;;;;;;;;;;;;;;19.49;55.73;95937.34;5095762;28;19989;-71
2022/06/19 03:36:42;;;;;;;;;;;;;;;19.47;55.66;95937.63;5095819;28;20330;-71
2022/06/19 03:39:09;;;;;;;;;;;;;;;19.46;54.91;95935.25;5095688;28;20000;-71
2022/06/19 03:41:37;;;;;;;;;;;;;;;19.47;54.87;95926.22;5095730;28;19963;-71
2022/06/19 03:44:04;;;;;;;;;;;;;;;19.46;55.55;95922.75;5095479;28;19960;-72
2022/06/19 03:46:30;;;;;;;;;;;;;;;19.47;55.51;95932.31;5095464;28;20346;-71
2022/06/19 03:48:56;;;;;;;;;;;;;;;19.50;55.96;95938.13;5095903;28;19956;-71
2022/06/19 03:51:25;;;;;;;;;;;;;;;19.51;56.16;95939.69;5095412;28;20032;-71
2022/06/19 03:53:52;;;;;;;;;;;;;;;19.52;56.93;95938.63;5095582;28;19954;-71
2022/06/19 03:56:26;;;;;;;;;;;;;;;19.54;56.61;95937.25;5094227;28;19959;-71
2022/06/19 03:58:53;;;;;;;;;;;;;;;19.56;55.89;95932.44;5095033;28;19950;-71
2022/06/19 04:01:19;;;;;;;;;;;;;;;19.57;55.58;95936.72;5095234;28;19953;-72
2022/06/19 04:03:46;;;;;;;;;;;;;;;19.60;55.41;95933.47;5095206;28;19954;-71
2022/06/19 04:06:13;;;;;;;;;;;;;;;19.62;55.21;95931.31;5095213;28;19959;-72
2022/06/19 04:08:40;;;;;;;;;;;;;;;19.65;55.80;95941.38;5095069;28;19953;-71
2022/06/19 04:11:06;;;;;;;;;;;;;;;19.66;55.51;95940.28;5093943;28;19978;-72
2022/06/19 04:13:33;;;;;;;;;;;;;;;19.68;55.81;95940.78;5094675;28;19990;-71
2022/06/19 04:15:59;;;;;;;;;;;;;;;19.71;55.93;95938.66;5095138;28;19974;-72
2022/06/19 04:18:25;;;;;;;;;;;;;;;19.74;56.59;95941.53;5095242;28;20051;-71
2022/06/19 04:20:51;;;;;;;;;;;;;;;19.77;56.10;95940.97;5094963;28;19963;-71
2022/06/19 04:23:17;;;;;;;;;;;;;;;19.81;56.21;95933.97;5094774;28;20334;-71
2022/06/19 04:25:43;;;;;;;;;;;;;;;19.87;56.00;95934.69;5094876;28;20003;-72
2022/06/19 04:28:10;;;;;;;;;;;;;;;19.92;56.30;95939.16;5094923;28;19965;-72
2022/06/19 04:30:36;;;;;;;;;;;;;;;19.97;56.77;95937.22;5094553;28;20366;-71
2022/06/19 04:33:02;;;;;;;;;;;;;;;20.02;55.88;95937.13;5094898;28;19969;-71
2022/06/19 04:35:28;;;;;;;;;;;;;;;20.09;55.61;95944.72;5094580;28;19955;-71
2022/06/19 04:37:54;;;;;;;;;;;;;;;20.17;55.37;95933.41;5094676;28;19958;-71
2022/06/19 04:40:20;;;;;;;;;;;;;;;20.25;55.31;95929.31;5094444;28;19960;-72
2022/06/19 04:42:46;;;;;;;;;;;;;;;20.33;54.94;95939.28;5094712;28;19947;-72
2022/06/19 04:45:12;;;;;;;;;;;;;;;20.40;54.74;95934.34;5094420;28;20013;-72
2022/06/19 04:47:39;;;;;;;;;;;;;;;20.48;54.56;95936.34;5094439;28;20023;-72
2022/06/19 04:50:06;;;;;;;;;;;;;;;20.57;54.59;95938.34;5094434;28;19981;-72
2022/06/19 04:52:31;;;;;;;;;;;;;;;20.67;54.08;95941.63;5094348;28;19955;-72
2022/06/19 04:54:57;;;;;;;;;;;;;;;20.78;54.40;95936.91;5093020;28;19953;-72
2022/06/19 04:57:23;;;;;;;;;;;;;;;20.92;54.02;95930.81;5094642;28;19957;-71
2022/06/19 04:59:49;;;;;;;;;;;;;;;21.03;53.49;95919.63;5094375;28;20329;-71
2022/06/19 05:02:15;;;;;;;;;;;;;;;21.16;54.07;95933.25;5093175;28;19964;-72
2022/06/19 05:04:41;;;;;;;;;;;;;;;21.27;52.89;95907.94;5094025;28;19961;-72
2022/06/19 05:07:08;;;;;;;;;;;;;;;21.41;52.62;95910.59;5094083;28;20329;-72
2022/06/19 05:09:34;;;;;;;;;;;;;;;21.56;52.57;95912.94;5093035;28;19964;-72
2022/06/19 05:11:59;;;;;;;;;;;;;;;21.74;52.34;95910.41;5094306;28;19953;-72
2022/06/19 05:14:25;;;;;;;;;;;;;;;21.92;51.67;95912.09;5094097;28;19988;-71
2022/06/19 05:16:51;;;;;;;;;;;;;;;22.11;51.50;95917.25;5093893;28;19966;-72
2022/06/19 05:19:17;;;;;;;;;;;;;;;22.29;51.38;95910.19;5093946;28;20388;-72
2022/06/19 05:21:44;;;;;;;;;;;;;;;22.46;51.23;95920.16;5094014;28;19952;-72
2022/06/19 05:24:10;;;;;;;;;;;;;;;22.61;50.61;95927.00;5093925;28;19960;-72
2022/06/19 05:26:36;;;;;;;;;;;;;;;22.67;49.72;95902.50;5093688;28;19964;-72
2022/06/19 05:29:03;;;;;;;;;;;;;;;22.79;50.10;95912.59;5094151;28;19964;-72
2022/06/19 05:31:29;;;;;;;;;;;;;;;22.95;50.29;95912.16;5093545;28;19977;-72
2022/06/19 05:33:55;;;;;;;;;;;;;;;23.05;48.73;95902.00;5093748;28;19958;-72
2022/06/19 05:36:22;;;;;;;;;;;;;;;23.17;48.24;95898.72;5093611;28;19952;-72
2022/06/19 05:38:48;;;;;;;;;;;;;;;23.20;48.38;95894.66;5092958;28;19954;-72
2022/06/19 05:41:34;;;;;;;;;;;;;;;23.26;48.18;95901.41;5084861;28;19958;-72
2022/06/19 05:44:00;;;;;;;;;;;;;;;23.30;47.61;95892.44;5093458;28;20040;-72
2022/06/19 05:46:25;;;;;;;;;;;;;;;23.43;48.35;95898.75;5093921;28;20052;-72
2022/06/19 05:48:51;;;;;;;;;;;;;;;23.55;48.00;95908.84;5093525;28;20403;-72
2022/06/19 05:51:22;;;;;;;;;;;;;;;23.71;47.93;95895.78;5092257;28;19990;-72
2022/06/19 05:53:52;;;;;;;;;;;;;;;23.93;47.64;95899.44;5083825;28;19953;-72
2022/06/19 05:56:18;;;;;;;;;;;;;;;24.07;46.89;95898.16;5093730;28;19962;-72
2022/06/19 05:58:44;;;;;;;;;;;;;;;24.24;47.14;95894.63;5093478;28;19960;-72
2022/06/19 06:01:11;;;;;;;;;;;;;;;24.33;46.29;95891.94;5093561;28;19966;-72
2022/06/19 06:03:37;;;;;;;;;;;;;;;24.41;46.83;95899.16;5093472;28;19963;-72
2022/06/19 06:06:05;;;;;;;;;;;;;;;24.56;46.58;95892.50;5093293;28;19961;-72
2022/06/19 06:08:33;;;;;;;;;;;;;;;24.70;46.26;95898.44;5093277;28;19970;-72
2022/06/19 06:10:59;;;;;;;;;;;;;;;24.84;45.77;95900.13;5092860;28;19968;-72
2022/06/19 06:13:25;;;;;;;;;;;;;;;24.89;45.96;95899.94;5093008;28;19964;-72
2022/06/19 06:15:51;;;;;;;;;;;;;;;25.01;45.35;95894.69;5093524;28;20326;-72
2022/06/19 06:18:18;;;;;;;;;;;;;;;25.17;45.11;95894.13;5091554;28;20337;-72
2022/06/19 06:20:43;;;;;;;;;;;;;;;25.28;44.86;95890.75;5093214;28;19980;-72
2022/06/19 06:23:10;;;;;;;;;;;;;;;25.47;44.82;95894.88;5097056;28;20567;-72
2022/06/19 06:25:40;;;;;;;;;;;;;;;25.57;43.97;95896.41;5097132;28;19957;-72
2022/06/19 06:28:06;;;;;;;;;;;;;;;25.60;44.23;95899.22;5097311;28;19959;-72
2022/06/19 06:30:32;;;;;;;;;;;;;;;25.61;44.61;95897.31;5097285;28;19977;-72
2022/06/19 06:32:58;;;;;;;;;;;;;;;25.51;44.75;95896.59;5097076;28;20408;-72
2022/06/19 06:35:24;;;;;;;;;;;;;;;25.55;44.41;95894.03;5096940;28;19956;-72
2022/06/19 06:37:50;;;;;;;;;;;;;;;25.76;44.84;95898.59;5096886;28;19999;-72
2022/06/19 06:40:15;;;;;;;;;;;;;;;26.04;44.96;95894.28;5097031;28;20050;-72
2022/06/19 06:42:42;;;;;;;;;;;;;;;26.35;44.75;95900.28;5096960;28;19958;-72
2022/06/19 06:45:11;;;;;;;;;;;;;;;26.62;43.78;95896.22;5096928;28;19966;-72
2022/06/19 06:47:37;;;;;;;;;;;;;;;26.79;43.40;95893.31;5096714;28;19957;-72
2022/06/19 06:50:03;;;;;;;;;;;;;;;26.82;43.53;95898.03;5096826;28;20338;-72
2022/06/19 06:52:29;;;;;;;;;;;;;;;26.97;44.17;95895.78;5097082;28;20406;-72
2022/06/19 06:54:55;;;;;;;;;;;;;;;27.20;43.67;95896.09;5096685;28;19954;-72
2022/06/19 06:57:21;;;;;;;;;;;;;;;27.30;42.72;95890.28;5096631;28;20003;-72
2022/06/19 06:59:47;;;;;;;;;;;;;;;27.31;43.53;95902.59;5096640;28;20370;-73
2022/06/19 07:02:13;;;;;;;;;;;;;;;27.44;43.24;95903.38;5096358;28;20001;-72
2022/06/19 07:04:56;;;;;;;;;;;;;;;27.51;42.55;95892.81;5096362;28;19968;-72
2022/06/19 07:07:22;;;;;;;;;;;;;;;27.53;42.42;95893.25;5096725;28;19959;-72
2022/06/19 07:09:47;;;;;;;;;;;;;;;27.60;42.28;95895.38;5096353;28;19954;-72
2022/06/19 07:12:13;;;;;;;;;;;;;;;27.64;42.82;95897.03;5095116;28;19960;-72
2022/06/19 07:14:39;;;;;;;;;;;;;;;27.78;42.58;95895.84;5096007;28;19984;-73
2022/06/19 07:17:06;;;;;;;;;;;;;;;27.90;42.69;95891.22;5096257;28;19967;-72
2022/06/19 07:19:32;;;;;;;;;;;;;;;28.00;42.10;95884.56;5096283;28;19961;-72
2022/06/19 07:21:58;;;;;;;;;;;;;;;28.22;44.15;95893.22;5096222;28;19967;-72
2022/06/19 07:24:25;;;;;;;;;;;;;;;28.47;42.80;95881.16;5096138;28;20099;-72
2022/06/19 07:26:52;;;;;;;;;;;;;;;28.73;42.40;95877.19;5096217;28;19955;-72
2022/06/19 07:29:18;;;;;;;;;;;;;;;28.93;41.83;95876.09;5095902;28;19961;-72
2022/06/19 07:31:44;;;;;;;;;;;;;;;29.13;41.43;95868.88;5095787;28;19972;-72
2022/06/19 07:34:09;;;;;;;;;;;;;;;29.21;41.21;95871.72;5094938;28;20018;-72
2022/06/19 07:36:35;;;;;;;;;;;;;;;29.35;40.69;95867.41;5095826;28;19958;-72
2022/06/19 07:39:03;;;;;;;;;;;;;;;29.41;40.01;95859.81;5095883;28;20419;-72
2022/06/19 07:41:29;;;;;;;;;;;;;;;29.40;40.67;95871.78;5095744;28;19962;-72
2022/06/19 07:43:56;;;;;;;;;;;;;;;29.49;41.17;95869.66;5095866;28;20368;-72
2022/06/19 07:46:23;;;;;;;;;;;;;;;29.55;40.50;95873.63;5096168;28;19960;-72
2022/06/19 07:51:33;;;;;;;;;;;;;;;29.68;40.08;95868.09;5095558;28;19977;-72
2022/06/19 07:54:00;;;;;;;;;;;;;;;29.71;40.62;95868.19;5095425;28;19989;-72
2022/06/19 07:56:26;;;;;;;;;;;;;;;29.86;40.68;95871.97;5095411;28;19956;-73
2022/06/19 07:58:52;;;;;;;;;;;;;;;29.99;41.89;95886.09;5095267;28;20450;-72
2022/06/19 08:01:18;;;;;;;;;;;;;;;30.10;40.68;95873.56;5095437;28;19959;-72
2022/06/19 08:03:44;;;;;;;;;;;;;;;30.20;40.60;95871.38;5095514;28;19960;-72
2022/06/19 08:06:13;;;;;;;;;;;;;;;30.25;40.01;95861.06;5095299;28;19959;-72
2022/06/19 08:08:41;;;;;;;;;;;;;;;30.49;40.86;95864.56;5095118;28;19964;-73
2022/06/19 08:11:07;;;;;;;;;;;;;;;30.71;40.88;95857.59;5095607;28;19974;-73
2022/06/19 08:13:34;;;;;;;;;;;;;;;30.90;39.63;95862.16;5080875;28;19981;-73
2022/06/19 08:16:03;;;;;;;;;;;;;;;31.09;37.88;95851.22;5095039;28;19969;-72
2022/06/19 08:18:29;;;;;;;;;;;;;;;31.22;34.80;95859.13;5095063;28;20275;-73
2022/06/19 08:20:55;;;;;;;;;;;;;;;31.42;35.93;95860.56;5095165;28;20355;-72
2022/06/19 08:23:21;;;;;;;;;;;;;;;31.64;34.00;95867.03;5095054;28;19962;-72
2022/06/19 08:25:47;;;;;;;;;;;;;;;31.74;33.60;95860.19;5094798;28;19960;-72
2022/06/19 08:28:15;;;;;;;;;;;;;;;31.80;31.97;95858.72;5095300;28;19968;-72
2022/06/19 08:30:42;;;;;;;;;;;;;;;31.79;31.83;95868.00;5094588;28;19966;-73
2022/06/19 08:33:09;;;;;;;;;;;;;;;31.79;32.56;95868.00;5094879;28;19985;-72
2022/06/19 08:35:44;;;;;;;;;;;;;;;31.83;30.67;95871.53;5094707;28;19955;-72
2022/06/19 08:38:14;;;;;;;;;;;;;;;31.85;31.90;95869.22;5094679;28;20291;-73
2022/06/19 08:41:00;;;;;;;;;;;;;;;31.86;30.49;95862.66;5094488;28;19979;-73
2022/06/19 08:43:26;;;;;;;;;;;;;;;32.03;31.98;95864.03;5094455;28;20334;-72
2022/06/19 08:46:10;;;;;;;;;;;;;;;32.17;31.36;95855.25;5094122;28;19960;-73
2022/06/19 08:49:11;;;;;;;;;;;;;;;32.29;31.75;95870.47;5094463;28;19955;-73
2022/06/19 08:51:41;;;;;;;;;;;;;;;32.43;30.52;95859.75;5063402;28;20363;-72
2022/06/19 08:54:15;;;;;;;;;;;;;;;32.52;29.18;95864.88;5090028;28;19958;-72
2022/06/19 08:56:47;;;;;;;;;;;;;;;32.60;29.57;95869.25;5094312;28;19960;-73
2022/06/19 08:59:20;;;;;;;;;;;;;;;32.69;28.67;95883.25;5080527;28;19960;-72
2022/06/19 09:01:46;;;;;;;;;;;;;;;32.75;29.37;95883.72;5094586;28;19964;-72
2022/06/19 09:07:23;;;;;;;;;;;;;;;32.67;29.00;95882.84;5093948;28;19957;-73
2022/06/19 09:09:52;;;;;;;;;;;;;;;32.68;27.73;95873.56;5094168;28;20322;-72
2022/06/19 09:12:36;;;;;;;;;;;;;;;32.71;28.11;95882.91;5093434;28;19977;-70
2022/06/19 09:15:12;;;;;;;;;;;;;;;32.69;27.25;95872.41;5091800;28;19982;-70
2022/06/19 09:17:45;;;;;;;;;;;;;;;32.72;28.15;95879.03;5093830;28;19968;-70
2022/06/19 09:20:31;;;;;;;;;;;;;;;32.75;25.99;95870.91;5094515;28;19951;-70
2022/06/19 09:23:40;;;;;;;;;;;;;;;32.87;25.93;95871.78;5084526;28;19959;-70
2022/06/19 09:26:09;;;;;;;;;;;;;;;32.92;25.71;95863.25;5086284;28;19958;-70
2022/06/19 09:28:47;;;;;;;;;;;;;;;32.96;25.74;95877.66;5093327;28;20296;-70
2022/06/19 09:31:28;;;;;;;;;;;;;;;33.00;26.50;95883.13;5093616;28;20455;-70
2022/06/19 09:34:09;;;;;;;;;;;;;;;33.03;25.05;95877.69;5093920;28;19954;-70
2022/06/19 09:36:44;;;;;;;;;;;;;;;33.05;25.33;95869.16;5093635;28;19955;-70
2022/06/19 09:39:13;;;;;;;;;;;;;;;33.12;25.18;95880.13;5093607;28;19975;-70
2022/06/19 09:41:57;;;;;;;;;;;;;;;33.22;26.53;95867.75;5094126;28;20420;-70
2022/06/19 09:44:37;;;;;;;;;;;;;;;33.34;26.20;95865.47;5093320;28;20437;-70
2022/06/19 09:47:03;;;;;;;;;;;;;;;33.48;25.19;95861.28;5081554;28;19971;-70
2022/06/19 09:49:33;;;;;;;;;;;;;;;33.58;26.12;95860.56;5093445;28;19961;-70
2022/06/19 09:52:05;;;;;;;;;;;;;;;33.65;26.08;95847.00;5093700;28;19967;-70
2022/06/19 09:54:35;;;;;;;;;;;;;;;33.76;25.98;95875.00;5093631;28;19964;-70
2022/06/19 09:57:18;;;;;;;;;;;;;;;33.82;25.47;95864.56;5095760;28;19966;-70
2022/06/19 09:59:50;;;;;;;;;;;;;;;33.89;25.70;95864.59;5087331;28;19960;-72
2022/06/19 10:02:23;;;;;;;;;;;;;;;33.94;25.93;95864.19;5087225;28;19962;-70
2022/06/19 10:04:54;;;;;;;;;;;;;;;34.00;25.14;95861.09;5097124;28;20029;-70
2022/06/19 10:07:31;;;;;;;;;;;;;;;34.05;24.92;95852.56;5096879;28;19955;-70
2022/06/19 10:10:01;;;;;;;;;;;;;;;34.14;25.21;95870.09;5098291;28;19947;-69
2022/06/19 10:12:40;;;;;;;;;;;;;;;34.14;24.40;95863.88;5097503;28;19970;-70
2022/06/19 10:15:13;;;;;;;;;;;;;;;34.24;24.29;95851.47;5097418;28;19985;-70
2022/06/19 10:17:59;;;;;;;;;;;;;;;34.36;24.50;95851.09;5096678;28;19960;-70
2022/06/19 10:20:33;;;;;;;;;;;;;;;34.50;24.46;95853.03;5097380;28;19960;-70
2022/06/19 10:22:59;;;;;;;;;;;;;;;34.58;23.12;95860.81;5085644;28;19950;-70
2022/06/19 10:25:28;;;;;;;;;;;;;;;34.67;23.84;95849.56;5097348;28;19970;-70
2022/06/19 10:28:06;;;;;;;;;;;;;;;34.71;24.00;95844.91;5097430;28;20330;-70
2022/06/19 10:30:36;;;;;;;;;;;;;;;34.72;23.51;95838.28;5097385;28;20409;-70
2022/06/19 10:33:31;;;;;;;;;;;;;;;34.69;22.55;95860.06;5084895;28;19949;-70
2022/06/19 10:36:06;;;;;;;;;;;;;;;34.66;22.85;95858.13;5059658;28;19967;-70
2022/06/19 10:38:51;;;;;;;;;;;;;;;34.74;23.38;95843.34;5096925;28;19949;-71
2022/06/19 10:42:01;;;;;;;;;;;;;;;34.87;22.32;95847.22;5097301;28;19960;-70
2022/06/19 10:44:30;;;;;;;;;;;;;;;35.00;21.66;95852.25;5081163;28;20307;-70
2022/06/19 10:47:04;;;;;;;;;;;;;;;35.12;21.53;95843.66;5096902;28;20301;-70
2022/06/19 10:50:11;;;;;;;;;;;;;;;35.19;21.89;95843.66;5096932;28;19955;-70
2022/06/19 10:52:43;;;;;;;;;;;;;;;35.33;21.90;95838.19;5085808;28;20161;-70
2022/06/19 10:55:32;;;;;;;;;;;;;;;35.42;21.56;95836.97;5096739;28;19955;-70
2022/06/19 10:58:25;;;;;;;;;;;;;;;35.50;20.97;95833.06;5096078;28;19952;-70
2022/06/19 11:00:52;;;;;;;;;;;;;;;35.48;21.14;95838.91;5095238;28;19954;-70
2022/06/19 11:06:51;;;;;;;;;;;;;;;35.52;21.70;95836.94;5095497;28;19966;-70
2022/06/19 11:09:36;;;;;;;;;;;;;;;35.61;22.09;95828.31;5072977;28;20315;-70
2022/06/19 11:12:05;;;;;;;;;;;;;;;35.72;21.69;95822.84;5096122;28;19961;-70
2022/06/19 11:14:34;;;;;;;;;;;;;;;35.77;21.09;95825.94;5095099;28;19993;-70
2022/06/19 11:17:04;;;;;;;;;;;;;;;35.83;20.74;95814.63;5096083;28;19955;-70
2022/06/19 11:19:36;;;;;;;;;;;;;;;35.79;20.57;95809.19;5096304;28;20356;-70
2022/06/19 11:22:05;;;;;;;;;;;;;;;35.85;20.90;95825.91;5095376;28;19971;-70
2022/06/19 11:24:33;;;;;;;;;;;;;;;35.88;21.21;95817.69;5095970;28;19962;-70
2022/06/19 11:26:59;;;;;;;;;;;;;;;35.93;20.48;95830.94;5096379;28;19958;-71
2022/06/19 11:29:26;;;;;;;;;;;;;;;36.02;20.72;95816.84;5096067;28;19962;-70
2022/06/19 11:32:05;;;;;;;;;;;;;;;36.05;19.60;95805.09;5077329;28;19967;-70
2022/06/19 11:34:43;;;;;;;;;;;;;;;36.05;20.41;95807.84;5095825;28;19948;-70
2022/06/19 11:37:11;;;;;;;;;;;;;;;36.21;20.66;95801.16;5095981;28;19957;-70
2022/06/19 11:39:40;;;;;;;;;;;;;;;36.26;21.04;95798.75;5095671;28;19976;-70
2022/06/19 11:42:24;;;;;;;;;;;;;;;36.32;20.50;95807.28;5095671;28;19963;-70
2022/06/19 11:45:00;;;;;;;;;;;;;;;36.42;20.46;95800.97;5095388;28;19966;-71
2022/06/19 11:47:31;;;;;;;;;;;;;;;36.45;20.45;95800.16;5095808;28;19958;-71
2022/06/19 11:50:07;;;;;;;;;;;;;;;36.52;21.02;95793.88;5095788;28;19968;-70
2022/06/19 11:52:33;;;;;;;;;;;;;;;36.52;20.63;95799.34;5095883;28;19966;-70
2022/06/19 11:55:00;;;;;;;;;;;;;;;36.55;21.81;95799.28;5095415;28;19957;-71
2022/06/19 11:57:28;;;;;;;;;;;;;;;36.55;20.67;95803.97;5079213;28;19966;-70
2022/06/19 11:59:59;;;;;;;;;;;;;;;36.51;19.73;95797.78;5095277;28;19952;-71
2022/06/19 12:02:31;;;;;;;;;;;;;;;36.50;19.86;95783.34;5095394;28;20395;-70
2022/06/19 12:05:01;;;;;;;;;;;;;;;36.61;20.20;95802.38;5095379;28;19953;-70
2022/06/19 12:07:29;;;;;;;;;;;;;;;36.63;20.13;95797.31;5095443;28;19952;-70
2022/06/19 12:10:00;;;;;;;;;;;;;;;36.76;20.52;95792.09;5095119;28;19961;-71
2022/06/19 12:12:26;;;;;;;;;;;;;;;36.84;20.80;95785.41;5095176;28;19971;-70
2022/06/19 12:14:54;;;;;;;;;;;;;;;36.97;20.42;95783.69;5094846;28;19978;-70
2022/06/19 12:17:32;;;;;;;;;;;;;;;37.04;20.31;95784.78;5095437;28;20440;-70
2022/06/19 12:20:04;;;;;;;;;;;;;;;37.03;20.30;95777.78;5094630;28;19971;-70
2022/06/19 12:22:36;;;;;;;;;;;;;;;37.02;20.22;95781.69;5095120;28;19952;-70
2022/06/19 12:25:07;;;;;;;;;;;;;;;37.02;20.36;95790.66;5094248;28;19962;-70
2022/06/19 12:27:36;;;;;;;;;;;;;;;37.01;19.94;95780.16;5094265;28;19955;-70
2022/06/19 12:30:04;;;;;;;;;;;;;;;36.39;19.13;95771.72;5094904;28;19956;-70
2022/06/19 12:32:40;;;;;;;;;;;;;;;36.26;21.06;95781.59;5095080;28;19997;-70
2022/06/19 12:35:23;;;;;;;;;;;;;;;36.35;20.02;95781.91;5094855;28;19955;-70
2022/06/19 12:37:49;;;;;;;;;;;;;;;36.42;20.25;95778.34;5094967;28;19953;-73
2022/06/19 12:40:18;;;;;;;;;;;;;;;36.56;19.53;95770.00;5094742;28;20420;-70
2022/06/19 12:43:04;;;;;;;;;;;;;;;36.64;19.08;95774.25;5094563;28;20407;-70
2022/06/19 12:45:39;;;;;;;;;;;;;;;36.53;17.86;95759.91;5094599;28;19952;-70
2022/06/19 12:48:05;;;;;;;;;;;;;;;36.46;19.08;95765.44;5094412;28;19955;-70
2022/06/19 12:50:43;;;;;;;;;;;;;;;36.48;19.80;95769.31;5094941;28;19953;-70
2022/06/19 12:53:27;;;;;;;;;;;;;;;36.61;19.44;95775.06;5094552;28;19984;-70
2022/06/19 12:56:12;;;;;;;;;;;;;;;36.73;19.73;95763.66;5082453;28;19974;-70
2022/06/19 12:58:52;;;;;;;;;;;;;;;36.88;20.18;95763.50;5085509;28;19956;-70
2022/06/19 13:01:25;;;;;;;;;;;;;;;36.99;19.47;95764.16;5094608;28;19958;-70
2022/06/19 13:03:59;;;;;;;;;;;;;;;37.10;19.80;95767.56;5094281;28;20065;-70
2022/06/19 13:06:43;;;;;;;;;;;;;;;37.19;19.69;95764.31;5094387;28;20325;-70
2022/06/19 13:09:18;;;;;;;;;;;;;;;37.25;19.61;95753.72;5094048;28;19957;-70
2022/06/19 13:11:44;;;;;;;;;;;;;;;37.16;18.89;95748.75;5094113;28;19973;-70
2022/06/19 13:14:21;;;;;;;;;;;;;;;37.09;19.69;95738.66;5093715;28;20461;-70